Time;durP1;ratioP1;P1;durP2;ratioP2;P2;SDS_P1;SDS_P2;PMS_P1;PMS_P2;Temp;Humidity;BMP_temperature;BMP_pressure;BME280_temperature;BME280_humidity;BME280_pressure;Samples;Min_cycle;Max_cycle;Signal;HPM_P1;HPM_P2
2023/11/18 00:00:52;;;;;;;0.45;0.45;;;;;;;8.64;72.08;102421.41;5073197;28;20565;-78
2023/11/18 00:03:18;;;;;;;0.50;0.50;;;;;;;8.64;71.65;102418.75;5077370;28;20117;-77
2023/11/18 00:05:44;;;;;;;4.15;2.25;;;;;;;8.60;72.12;102416.06;5084893;28;20515;-77
2023/11/18 00:08:10;;;;;;;0.20;0.20;;;;;;;8.56;71.63;102418.66;5083517;28;20038;-78
2023/11/18 00:10:36;;;;;;;0.20;0.20;;;;;;;8.50;71.70;102404.47;5077466;28;20020;-78
2023/11/18 00:13:03;;;;;;;0.30;0.30;;;;;;;8.48;71.90;102414.16;5085896;28;20039;-78
2023/11/18 00:15:30;;;;;;;2.92;2.67;;;;;;;8.43;72.24;102409.63;5078301;28;20111;-79
2023/11/18 00:17:56;;;;;;;0.45;0.45;;;;;;;8.40;71.96;102400.81;5074265;28;20495;-78
2023/11/18 00:20:23;;;;;;;0.20;0.20;;;;;;;8.39;71.87;102407.81;5074116;28;20016;-78
2023/11/18 00:22:51;;;;;;;1.00;1.00;;;;;;;8.34;71.72;102401.59;5085421;28;20028;-78
2023/11/18 00:25:17;;;;;;;0.20;0.20;;;;;;;8.30;71.76;102396.22;5080405;28;20024;-78
2023/11/18 00:27:43;;;;;;;0.20;0.20;;;;;;;8.24;72.50;102403.19;5079702;28;20025;-81
2023/11/18 00:30:11;;;;;;;0.73;0.73;;;;;;;8.25;71.69;102404.97;5078740;28;20052;-79
2023/11/18 00:32:38;;;;;;;0.20;0.20;;;;;;;8.22;71.77;102404.97;5074932;28;20028;-78
2023/11/18 00:35:05;;;;;;;0.30;0.30;;;;;;;8.20;72.11;102405.75;5076811;28;20668;-80
2023/11/18 00:37:31;;;;;;;0.57;0.57;;;;;;;8.20;71.92;102405.75;5064440;28;20052;-77
2023/11/18 00:39:58;;;;;;;0.65;0.65;;;;;;;8.18;71.88;102418.06;5089423;28;20028;-79
2023/11/18 00:42:25;;;;;;;0.30;0.30;;;;;;;8.17;72.16;102411.00;5080224;28;20068;-79
2023/11/18 00:44:51;;;;;;;9.02;2.97;;;;;;;8.17;71.87;102411.00;5080179;28;20042;-80
2023/11/18 00:47:17;;;;;;;0.22;0.22;;;;;;;8.17;72.20;102411.00;5077587;28;20115;-79
2023/11/18 00:49:43;;;;;;;0.20;0.20;;;;;;;8.13;72.51;102409.19;5071667;28;20112;-79
2023/11/18 00:52:09;;;;;;;0.50;0.50;;;;;;;8.17;71.99;102418.94;5078042;28;20047;-77
2023/11/18 00:54:36;;;;;;;1.08;1.05;;;;;;;8.20;72.18;102422.50;5074270;28;20048;-79
2023/11/18 00:57:03;;;;;;;0.20;0.20;;;;;;;8.22;72.09;102422.53;5078381;28;20024;-80
2023/11/18 00:59:29;;;;;;;0.17;0.17;;;;;;;8.23;72.12;102422.53;5080502;28;20036;-79
2023/11/18 01:01:55;;;;;;;0.50;0.50;;;;;;;8.27;72.22;102412.91;5080789;28;20031;-79
2023/11/18 01:04:21;;;;;;;0.25;0.25;;;;;;;8.30;72.50;102418.25;5079044;28;20437;-79
2023/11/18 01:06:48;;;;;;;1.00;0.63;;;;;;;8.33;71.99;102423.56;5084278;28;20087;-78
2023/11/18 01:09:16;;;;;;;0.20;0.20;;;;;;;8.35;72.39;102429.78;5074568;28;20086;-80
2023/11/18 01:11:42;;;;;;;0.47;0.47;;;;;;;8.37;72.19;102424.50;5074738;28;20020;-79
2023/11/18 01:14:08;;;;;;;0.20;0.20;;;;;;;8.39;72.11;102426.31;5085962;28;20028;-80
2023/11/18 01:16:34;;;;;;;0.43;0.43;;;;;;;8.40;72.00;102428.09;5070117;28;20035;-80
2023/11/18 01:19:00;;;;;;;0.20;0.20;;;;;;;8.41;72.25;102421.94;5087093;28;20039;-79
2023/11/18 01:21:27;;;;;;;0.52;0.52;;;;;;;8.42;72.23;102414.91;5083608;28;20057;-79
2023/11/18 01:23:53;;;;;;;0.50;0.50;;;;;;;8.42;72.27;102418.44;5084852;28;20040;-79
2023/11/18 01:26:19;;;;;;;0.68;0.68;;;;;;;8.43;72.23;102420.19;5084645;28;20032;-78
2023/11/18 01:28:46;;;;;;;0.50;0.50;;;;;;;8.42;72.69;102421.09;5079580;28;20020;-79
2023/11/18 01:31:13;;;;;;;0.20;0.20;;;;;;;8.45;72.74;102421.97;5086880;28;20055;-78
2023/11/18 01:33:40;;;;;;;0.40;0.40;;;;;;;8.48;72.11;102415.03;5083781;28;20037;-79
2023/11/18 01:36:08;;;;;;;0.20;0.20;;;;;;;8.50;72.66;102425.59;5075810;28;20032;-78
2023/11/18 01:38:35;;;;;;;0.20;0.20;;;;;;;8.51;72.81;102430.94;5085325;28;20021;-78
2023/11/18 01:41:02;;;;;;;0.20;0.20;;;;;;;8.57;72.82;102432.75;5084557;28;20028;-78
2023/11/18 01:43:31;;;;;;;3.20;1.90;;;;;;;8.58;72.37;102434.53;5083045;28;20149;-78
2023/11/18 01:46:01;;;;;;;0.25;0.25;;;;;;;8.59;72.46;102436.31;5079523;28;20028;-79
2023/11/18 01:48:29;;;;;;;0.77;0.65;;;;;;;8.61;72.40;102434.59;5081875;28;20124;-78
2023/11/18 01:50:58;;;;;;;1.15;1.15;;;;;;;8.61;72.69;102434.59;5086674;28;20028;-78
2023/11/18 01:53:25;;;;;;;0.20;0.20;;;;;;;8.64;72.79;102433.75;5090077;28;20115;-78
2023/11/18 01:55:52;;;;;;;0.60;0.60;;;;;;;8.65;72.45;102438.13;5089165;28;20032;-79
2023/11/18 01:58:19;;;;;;;0.40;0.40;;;;;;;8.66;72.87;102432.91;5090566;28;20022;-80
2023/11/18 02:00:46;;;;;;;0.15;0.15;;;;;;;8.70;72.80;102439.09;5084887;28;20043;-79
2023/11/18 02:03:13;;;;;;;0.30;0.30;;;;;;;8.72;72.66;102432.97;5076858;28;20051;-79
2023/11/18 02:05:39;;;;;;;0.20;0.20;;;;;;;8.73;72.38;102433.84;5085255;28;20028;-78
2023/11/18 02:08:07;;;;;;;0.20;0.20;;;;;;;8.76;72.29;102422.44;5084729;28;20028;-79
2023/11/18 02:10:39;;;;;;;1.85;1.75;;;;;;;8.78;72.52;102426.00;5075437;28;20021;-78
2023/11/18 02:13:13;;;;;;;0.55;0.55;;;;;;;8.80;72.60;102430.44;5076557;28;20032;-78
2023/11/18 02:15:40;;;;;;;0.63;0.63;;;;;;;8.78;72.69;102436.56;5072013;28;20029;-80
2023/11/18 02:18:09;;;;;;;0.20;0.20;;;;;;;8.78;72.67;102431.28;5088434;28;20027;-79
2023/11/18 02:20:36;;;;;;;0.80;0.80;;;;;;;8.74;72.42;102436.50;5084437;28;20383;-79
2023/11/18 02:23:02;;;;;;;2.00;1.90;;;;;;;8.78;72.35;102431.28;5088498;28;20026;-79
2023/11/18 02:25:32;;;;;;;0.15;0.15;;;;;;;8.77;72.65;102432.13;5087448;28;20108;-79
2023/11/18 02:27:59;;;;;;;1.75;1.27;;;;;;;8.78;72.23;102428.63;5075328;28;20032;-79
2023/11/18 02:30:27;;;;;;;0.22;0.22;;;;;;;8.77;72.38;102416.28;5077556;28;20024;-79
2023/11/18 02:33:14;;;;;;;1.88;0.95;;;;;;;8.82;72.27;102411.94;5081302;28;20032;-78
2023/11/18 02:35:52;;;;;;;0.20;0.20;;;;;;;8.81;72.57;102407.50;5071454;28;20020;-79
2023/11/18 02:38:22;;;;;;;0.20;0.20;;;;;;;8.77;71.99;102400.44;5085565;28;20478;-80
2023/11/18 02:40:53;;;;;;;0.38;0.38;;;;;;;8.73;72.49;102392.47;5082642;28;20295;-80
2023/11/18 02:43:19;;;;;;;0.35;0.35;;;;;;;8.74;72.62;102394.22;5086370;28;20032;-80
2023/11/18 02:45:46;;;;;;;0.25;0.25;;;;;;;8.74;72.28;102383.66;5073596;28;20476;-79
2023/11/18 02:48:14;;;;;;;0.40;0.40;;;;;;;8.73;72.59;102392.47;5088560;28;20493;-79
2023/11/18 02:50:42;;;;;;;0.20;0.20;;;;;;;8.77;72.66;102397.78;5089574;28;20032;-79
2023/11/18 02:53:09;;;;;;;0.28;0.28;;;;;;;8.78;72.39;102400.44;5091950;28;20414;-79
2023/11/18 02:55:35;;;;;;;1.52;1.48;;;;;;;8.82;72.72;102391.69;5091197;28;20111;-79
2023/11/18 02:58:02;;;;;;;0.25;0.25;;;;;;;8.81;72.81;102383.72;5091493;28;20486;-79
2023/11/18 03:00:28;;;;;;;0.25;0.25;;;;;;;8.83;72.40;102377.59;5085863;28;20028;-79
2023/11/18 03:02:55;;;;;;;0.10;0.10;;;;;;;8.84;72.74;102383.78;5090853;28;20028;-79
2023/11/18 03:05:22;;;;;;;0.40;0.40;;;;;;;8.89;72.53;102387.38;5094939;28;20505;-79
2023/11/18 03:07:50;;;;;;;0.20;0.20;;;;;;;8.95;72.35;102391.81;5091362;28;20039;-79
2023/11/18 03:10:24;;;;;;;0.20;0.20;;;;;;;8.88;72.98;102386.50;5083799;28;20017;-79
2023/11/18 03:12:52;;;;;;;0.10;0.10;;;;;;;8.88;72.45;102375.91;5089265;28;20496;-79
2023/11/18 03:15:19;;;;;;;0.55;0.55;;;;;;;8.88;72.51;102380.28;5086649;28;20032;-79
2023/11/18 03:17:48;;;;;;;0.20;0.20;;;;;;;8.89;72.77;102376.78;5090794;28;20528;-79
2023/11/18 03:20:16;;;;;;;0.20;0.20;;;;;;;8.92;72.22;102370.66;5085040;28;20064;-79
2023/11/18 03:22:44;;;;;;;0.30;0.30;;;;;;;8.89;72.63;102385.59;5071420;28;20508;-79
2023/11/18 03:25:12;;;;;;;2.50;2.05;;;;;;;8.94;72.63;102366.28;5084840;28;20107;-78
2023/11/18 03:27:38;;;;;;;0.65;0.65;;;;;;;8.98;72.60;102352.22;5086564;28;20483;-79
2023/11/18 03:30:06;;;;;;;0.30;0.30;;;;;;;8.99;72.48;102346.94;5078739;28;20040;-79
2023/11/18 03:32:33;;;;;;;0.22;0.22;;;;;;;9.01;72.28;102344.28;5079469;28;20028;-79
2023/11/18 03:34:59;;;;;;;0.40;0.40;;;;;;;9.01;72.24;102326.69;5093162;28;20533;-79
2023/11/18 03:37:26;;;;;;;0.20;0.20;;;;;;;9.00;72.29;102319.63;5091157;28;20032;-79
2023/11/18 03:39:53;;;;;;;0.20;0.20;;;;;;;8.96;72.15;102316.94;5085539;28;20071;-78
2023/11/18 03:42:19;;;;;;;1.15;1.15;;;;;;;8.97;72.16;102309.03;5088570;28;20070;-78
2023/11/18 03:44:47;;;;;;;0.40;0.40;;;;;;;8.93;72.32;102309.84;5088177;28;20036;-78
2023/11/18 03:47:14;;;;;;;0.43;0.43;;;;;;;8.90;72.28;102301.91;5092735;28;20113;-79
2023/11/18 03:49:41;;;;;;;0.90;0.90;;;;;;;8.92;72.43;102308.06;5089417;28;20411;-79
2023/11/18 03:52:07;;;;;;;0.80;0.80;;;;;;;8.87;72.07;102312.44;5077936;28;20402;-79
2023/11/18 03:54:33;;;;;;;0.20;0.20;;;;;;;8.85;72.35;102306.28;5091089;28;20059;-80
2023/11/18 03:56:59;;;;;;;0.20;0.20;;;;;;;8.88;72.31;102301.00;5084811;28;20056;-80
2023/11/18 03:59:26;;;;;;;0.20;0.20;;;;;;;8.85;72.42;102300.97;5088797;28;20024;-80
2023/11/18 04:01:52;;;;;;;1.85;1.75;;;;;;;8.83;72.33;102303.59;5089568;28;20070;-80
2023/11/18 04:04:19;;;;;;;0.20;0.20;;;;;;;8.83;71.95;102297.41;5093943;28;20486;-79
2023/11/18 04:06:46;;;;;;;0.20;0.20;;;;;;;8.85;71.79;102295.69;5090882;28;20054;-79
2023/11/18 04:09:13;;;;;;;0.50;0.50;;;;;;;8.85;72.25;102290.41;5083498;28;20078;-80
2023/11/18 04:11:39;;;;;;;2.15;1.05;;;;;;;8.85;71.93;102274.56;5090827;28;20012;-80
2023/11/18 04:14:05;;;;;;;1.35;1.33;;;;;;;8.83;72.22;102271.00;5082874;28;20028;-80
2023/11/18 04:16:31;;;;;;;0.20;0.20;;;;;;;8.82;72.02;102269.22;5088374;28;20047;-80
2023/11/18 04:18:57;;;;;;;0.38;0.38;;;;;;;8.83;71.82;102266.59;5087082;28;20024;-80
2023/11/18 04:21:23;;;;;;;0.40;0.40;;;;;;;8.81;71.95;102256.88;5087519;28;20020;-79
2023/11/18 04:23:50;;;;;;;0.70;0.70;;;;;;;8.85;71.80;102253.41;5088714;28;20541;-80
2023/11/18 04:26:16;;;;;;;1.95;1.85;;;;;;;8.88;72.46;102248.13;5087327;28;20044;-79
2023/11/18 04:28:42;;;;;;;0.70;0.70;;;;;;;8.83;72.07;102255.13;5090359;28;20032;-80
2023/11/18 04:31:08;;;;;;;0.73;0.73;;;;;;;8.88;72.10;102250.78;5082338;28;20381;-79
2023/11/18 04:33:34;;;;;;;2.00;0.90;;;;;;;8.85;72.34;102245.47;5087313;28;20054;-80
2023/11/18 04:36:00;;;;;;;0.20;0.20;;;;;;;8.89;72.17;102250.78;5089127;28;20054;-79
2023/11/18 04:38:27;;;;;;;0.55;0.43;;;;;;;8.92;72.67;102254.34;5089008;28;20031;-80
2023/11/18 04:40:54;;;;;;;0.57;0.57;;;;;;;8.89;72.35;102250.78;5090641;28;20031;-80
2023/11/18 04:43:22;;;;;;;0.10;0.10;;;;;;;8.90;72.65;102244.63;5083491;28;20103;-79
2023/11/18 04:45:48;;;;;;;0.68;0.57;;;;;;;8.93;72.35;102233.19;5092707;28;20027;-80
2023/11/18 04:48:14;;;;;;;3.53;1.98;;;;;;;8.94;72.39;102237.63;5086137;28;20044;-80
2023/11/18 04:50:42;;;;;;;0.20;0.20;;;;;;;8.92;72.37;102234.06;5089517;28;20024;-80
2023/11/18 04:53:10;;;;;;;0.30;0.30;;;;;;;8.96;72.19;102240.28;5087703;28;20066;-79
2023/11/18 04:55:36;;;;;;;2.15;1.98;;;;;;;8.96;72.34;102238.53;5089891;28;20053;-79
2023/11/18 04:58:04;;;;;;;0.47;0.47;;;;;;;9.01;71.99;102228.88;5086791;28;20059;-80
2023/11/18 05:00:32;;;;;;;0.20;0.20;;;;;;;8.97;72.30;102221.81;5083029;28;20028;-79
2023/11/18 05:02:59;;;;;;;2.13;1.95;;;;;;;9.00;72.30;102216.53;5089351;28;20036;-81
2023/11/18 05:05:25;;;;;;;0.20;0.20;;;;;;;9.00;71.92;102216.53;5084088;28;20084;-78
2023/11/18 05:07:51;;;;;;;0.30;0.30;;;;;;;9.03;71.77;102216.56;5090062;28;20034;-80
2023/11/18 05:10:18;;;;;;;0.20;0.20;;;;;;;9.04;71.92;102213.03;5085009;28;20090;-80
2023/11/18 05:12:44;;;;;;;0.32;0.32;;;;;;;9.00;71.83;102205.94;5088958;28;20513;-79
2023/11/18 05:15:11;;;;;;;8.10;1.25;;;;;;;9.02;71.66;102209.50;5083089;28;20063;-79
2023/11/18 05:17:38;;;;;;;0.47;0.47;;;;;;;9.04;71.96;102202.44;5090635;28;20525;-79
2023/11/18 05:20:08;;;;;;;0.25;0.25;;;;;;;9.01;71.65;102197.16;5085395;28;20486;-80
2023/11/18 05:22:36;;;;;;;0.63;0.63;;;;;;;9.04;71.75;102191.00;5083490;28;20032;-80
2023/11/18 05:25:04;;;;;;;0.20;0.20;;;;;;;9.02;71.58;102193.66;5093777;28;20024;-79
2023/11/18 05:27:31;;;;;;;0.20;0.20;;;;;;;9.07;71.71;102196.31;5083690;28;20028;-79
2023/11/18 05:29:59;;;;;;;0.28;0.28;;;;;;;9.08;71.54;102187.50;5087199;28;20040;-79
2023/11/18 05:32:28;;;;;;;0.20;0.20;;;;;;;9.07;71.23;102175.16;5075320;28;20024;-79
2023/11/18 05:34:57;;;;;;;0.20;0.20;;;;;;;9.04;71.52;102177.78;5080819;28;20036;-79
2023/11/18 05:37:24;;;;;;;3.30;0.95;;;;;;;8.98;71.56;102175.97;5081720;28;20124;-79
2023/11/18 05:39:59;;;;;;;0.40;0.40;;;;;;;9.04;71.52;102173.38;5086523;28;20029;-79
2023/11/18 05:42:26;;;;;;;0.40;0.40;;;;;;;9.06;71.22;102169.00;5085691;28;20046;-79
2023/11/18 05:44:59;;;;;;;0.20;0.20;;;;;;;9.09;71.65;102164.59;5080460;28;20033;-78
2023/11/18 05:47:26;;;;;;;1.08;1.08;;;;;;;9.06;71.10;102173.41;5086606;28;20393;-80
2023/11/18 05:49:53;;;;;;;0.10;0.10;;;;;;;9.10;71.21;102174.28;5075152;28;20047;-80
2023/11/18 05:52:20;;;;;;;0.22;0.22;;;;;;;9.12;71.06;102175.19;5082689;28;20027;-79
2023/11/18 05:54:47;;;;;;;0.52;0.52;;;;;;;9.03;71.07;102166.34;5076852;28;20103;-80
2023/11/18 05:57:15;;;;;;;0.20;0.20;;;;;;;9.07;71.23;102149.63;5078777;28;20474;-80
2023/11/18 05:59:41;;;;;;;0.70;0.63;;;;;;;9.01;70.92;102149.56;5079668;28;20107;-79
2023/11/18 06:02:08;;;;;;;0.13;0.13;;;;;;;9.09;71.19;102157.56;5084003;28;20020;-79
2023/11/18 06:04:35;;;;;;;1.48;1.45;;;;;;;9.07;71.36;102160.19;5078559;28;20032;-80
2023/11/18 06:07:02;;;;;;;0.30;0.30;;;;;;;9.09;71.03;102156.69;5085536;28;20044;-80
2023/11/18 06:09:28;;;;;;;0.20;0.20;;;;;;;9.01;71.33;102162.78;5085453;28;20021;-79
2023/11/18 06:11:55;;;;;;;0.90;0.90;;;;;;;9.00;70.96;102160.13;5085208;28;20031;-79
2023/11/18 06:14:21;;;;;;;0.15;0.15;;;;;;;9.04;70.97;102144.28;5087097;28;20031;-79
2023/11/18 06:16:50;;;;;;;3.35;3.13;;;;;;;9.09;71.12;102130.25;5080233;28;20036;-79
2023/11/18 06:19:16;;;;;;;1.00;1.00;;;;;;;9.04;70.89;102123.13;5092337;28;20394;-80
2023/11/18 06:21:42;;;;;;;0.68;0.68;;;;;;;8.96;71.00;102124.88;5080590;28;20024;-80
2023/11/18 06:24:11;;;;;;;0.45;0.45;;;;;;;8.92;71.29;102130.97;5088557;28;20488;-79
2023/11/18 06:26:37;;;;;;;1.85;1.75;;;;;;;8.94;71.26;102134.53;5077764;28;20048;-80
2023/11/18 06:29:04;;;;;;;1.10;1.10;;;;;;;8.93;71.13;102140.69;5089336;28;20028;-80
2023/11/18 06:31:30;;;;;;;0.20;0.20;;;;;;;9.01;71.35;102149.56;5082215;28;20020;-80
2023/11/18 06:33:56;;;;;;;0.60;0.43;;;;;;;8.95;71.24;102138.94;5094927;28;20059;-81
2023/11/18 06:36:23;;;;;;;0.52;0.52;;;;;;;9.01;71.18;102133.72;5079383;28;20081;-81
2023/11/18 06:38:51;;;;;;;0.30;0.30;;;;;;;8.97;71.33;102128.38;5095372;28;20032;-79
2023/11/18 06:41:23;;;;;;;0.20;0.20;;;;;;;9.04;71.07;102120.50;5078983;28;20031;-80
2023/11/18 06:43:59;;;;;;;0.40;0.40;;;;;;;9.07;70.99;102115.25;5078787;28;20038;-80
2023/11/18 06:49:03;;;;;;;0.20;0.20;;;;;;;9.03;71.12;102113.47;5098672;27;1911827;-79
2023/11/18 06:51:34;;;;;;;2.25;2.15;;;;;;;9.05;70.97;102116.97;5141754;27;20031;-79
2023/11/18 06:54:04;;;;;;;0.20;0.20;;;;;;;9.09;71.19;102114.38;5141103;27;20035;-80
2023/11/18 06:56:30;;;;;;;7.63;1.48;;;;;;;9.07;70.75;102119.63;5135336;27;20106;-80
2023/11/18 06:58:56;;;;;;;0.15;0.15;;;;;;;9.06;70.86;102115.25;5133928;28;20053;-79
2023/11/18 07:01:22;;;;;;;0.20;0.20;;;;;;;9.04;71.27;102120.50;5132631;28;20031;-80
2023/11/18 07:03:52;;;;;;;0.50;0.50;;;;;;;9.09;71.08;102124.94;5132932;28;20096;-79
2023/11/18 07:06:22;;;;;;;0.43;0.43;;;;;;;9.11;71.23;102124.09;5132713;28;20015;-80
2023/11/18 07:08:49;;;;;;;0.20;0.20;;;;;;;9.11;70.85;102118.78;5131874;28;20023;-80
2023/11/18 07:11:16;;;;;;;2.30;0.85;;;;;;;9.17;71.02;102123.22;5132237;28;20114;-79
2023/11/18 07:13:43;;;;;;;0.10;0.10;;;;;;;9.11;70.80;102128.47;5131309;28;20027;-78
2023/11/18 07:16:09;;;;;;;1.38;1.38;;;;;;;9.15;70.79;102136.44;5131971;28;20035;-79
2023/11/18 07:18:37;;;;;;;0.20;0.20;;;;;;;9.10;70.81;102134.63;5131638;28;20106;-81
2023/11/18 07:21:05;;;;;;;0.20;0.20;;;;;;;9.16;70.84;102137.31;5132576;28;20665;-79
2023/11/18 07:23:32;;;;;;;0.20;0.20;;;;;;;9.16;70.69;102142.59;5132884;28;20027;-79
2023/11/18 07:25:58;;;;;;;0.50;0.50;;;;;;;9.15;70.48;102141.72;5132318;28;20031;-80
2023/11/18 07:28:24;;;;;;;0.63;0.63;;;;;;;9.16;70.73;102139.97;5131685;28;20106;-80
2023/11/18 07:30:52;;;;;;;0.40;0.40;;;;;;;9.19;70.56;102145.28;5128902;27;20385;-80
2023/11/18 07:33:19;;;;;;;0.20;0.20;;;;;;;9.17;70.22;102150.56;5123438;28;20020;-79
2023/11/18 07:35:48;;;;;;;0.30;0.30;;;;;;;9.16;70.56;102147.88;5118347;28;20027;-79
2023/11/18 07:38:14;;;;;;;0.73;0.73;;;;;;;9.22;70.43;102150.56;5130100;28;20027;-79
2023/11/18 07:40:42;;;;;;;0.47;0.47;;;;;;;9.16;70.54;102147.88;5125294;28;20036;-78
2023/11/18 07:43:09;;;;;;;0.68;0.68;;;;;;;9.19;70.54;102140.88;5131525;28;20055;-78
2023/11/18 07:45:39;;;;;;;0.28;0.28;;;;;;;9.26;70.59;102131.22;5126540;28;20481;-80
2023/11/18 07:48:07;;;;;;;0.60;0.60;;;;;;;9.23;70.35;102134.75;5129061;28;20054;-80
2023/11/18 07:50:35;;;;;;;0.95;0.95;;;;;;;9.15;70.32;102125.00;5133778;28;20035;-80
2023/11/18 07:53:02;;;;;;;0.20;0.20;;;;;;;9.20;70.68;102123.25;5132096;28;20015;-80
2023/11/18 07:55:29;;;;;;;0.63;0.63;;;;;;;9.21;70.40;102120.63;5132110;28;20031;-79
2023/11/18 07:57:55;;;;;;;0.70;0.70;;;;;;;9.27;70.46;102127.72;5131246;28;20054;-79
2023/11/18 08:00:23;;;;;;;0.20;0.20;;;;;;;9.28;70.45;102113.59;5116626;28;20086;-80
2023/11/18 08:02:54;;;;;;;0.17;0.17;;;;;;;9.29;70.53;102117.13;5115402;28;20015;-80
2023/11/18 08:05:22;;;;;;;0.50;0.50;;;;;;;9.25;70.54;102104.78;5119429;28;20474;-81
2023/11/18 08:07:49;;;;;;;1.10;1.10;;;;;;;9.25;70.68;102103.00;5120113;28;20027;-80
2023/11/18 08:10:18;;;;;;;0.63;0.63;;;;;;;9.20;70.50;102112.69;5119131;28;20062;-81
2023/11/18 08:12:45;;;;;;;0.10;0.10;;;;;;;9.28;70.84;102095.06;5116224;28;20019;-80
2023/11/18 08:15:11;;;;;;;0.90;0.90;;;;;;;9.29;70.81;102102.13;5120426;28;20100;-80
2023/11/18 08:17:37;;;;;;;0.20;0.20;;;;;;;9.34;70.89;102103.03;5120037;28;20054;-79
2023/11/18 08:20:13;;;;;;;1.75;1.15;;;;;;;9.38;70.47;102094.28;5118464;28;20092;-79
2023/11/18 08:22:41;;;;;;;0.20;0.20;;;;;;;9.41;70.58;102087.22;5117157;28;20031;-80
2023/11/18 08:25:08;;;;;;;0.20;0.20;;;;;;;9.36;70.55;102077.50;5113793;27;20034;-79
2023/11/18 08:27:35;;;;;;;0.70;0.70;;;;;;;9.39;70.53;102077.53;5117771;28;20088;-78
2023/11/18 08:30:05;;;;;;;1.67;1.55;;;;;;;9.47;70.48;102096.06;5117924;28;20031;-79
2023/11/18 08:32:32;;;;;;;0.55;0.55;;;;;;;9.50;70.43;102095.19;5110472;28;20067;-79
2023/11/18 08:34:58;;;;;;;0.20;0.20;;;;;;;9.51;70.35;102081.97;5115426;28;20090;-80
2023/11/18 08:37:24;;;;;;;0.20;0.20;;;;;;;9.51;70.49;102070.53;5114594;28;20099;-79
2023/11/18 08:39:51;;;;;;;0.10;0.10;;;;;;;9.48;70.53;102070.50;5119560;28;20024;-80
2023/11/18 08:42:17;;;;;;;0.52;0.52;;;;;;;9.53;70.73;102058.16;5117802;28;20016;-78
2023/11/18 08:44:43;;;;;;;0.20;0.20;;;;;;;9.54;70.56;102065.22;5116311;28;20023;-79
2023/11/18 08:47:09;;;;;;;0.20;0.20;;;;;;;9.41;70.91;102060.75;5116863;28;20055;-78
2023/11/18 08:49:37;;;;;;;1.20;0.98;;;;;;;9.36;71.11;102048.41;5115629;28;20122;-79
2023/11/18 08:52:09;;;;;;;0.13;0.13;;;;;;;9.41;71.26;102035.19;5112943;28;20038;-78
2023/11/18 08:54:37;;;;;;;0.10;0.10;;;;;;;9.37;71.09;102023.72;5110158;28;20045;-78
2023/11/18 08:57:23;;;;;;;0.20;0.20;;;;;;;9.34;71.45;102018.41;5113648;28;20024;-77
2023/11/18 08:59:50;;;;;;;0.20;0.20;;;;;;;9.39;71.48;102019.34;5112149;28;20020;-77
2023/11/18 09:02:23;;;;;;;0.52;0.52;;;;;;;9.35;71.89;102022.81;5115920;28;20020;-79
2023/11/18 09:04:49;;;;;;;0.20;0.20;;;;;;;9.29;71.90;102017.50;5115042;28;20092;-78
2023/11/18 09:07:16;;;;;;;0.75;0.75;;;;;;;9.34;71.83;102005.19;5114403;28;20030;-79
2023/11/18 09:09:43;;;;;;;0.20;0.20;;;;;;;9.35;72.02;102011.38;5115544;27;20077;-78
2023/11/18 09:12:14;;;;;;;0.68;0.68;;;;;;;9.39;72.42;101998.19;5111956;27;20019;-76
2023/11/18 09:14:42;;;;;;;2.17;0.93;;;;;;;9.28;72.79;101984.00;5114724;28;20386;-78
2023/11/18 09:17:09;;;;;;;0.52;0.52;;;;;;;9.30;72.56;101971.69;5115119;28;20043;-79
2023/11/18 09:19:35;;;;;;;0.20;0.20;;;;;;;9.34;72.67;101954.06;5115166;28;20039;-79
2023/11/18 09:22:01;;;;;;;0.73;0.73;;;;;;;9.35;72.92;101946.13;5110360;27;20062;-79
2023/11/18 09:24:27;;;;;;;0.20;0.20;;;;;;;9.36;73.16;101944.38;5109276;28;20024;-78
2023/11/18 09:26:54;;;;;;;0.75;0.75;;;;;;;9.34;73.26;101940.84;5117164;28;20034;-77
2023/11/18 09:29:23;;;;;;;0.30;0.30;;;;;;;9.37;73.54;101946.13;5108600;27;20023;-79
2023/11/18 09:31:54;;;;;;;0.20;0.20;;;;;;;9.37;73.53;101944.38;5110513;28;20027;-77
2023/11/18 09:34:27;;;;;;;0.20;0.20;;;;;;;9.36;73.99;101949.66;5109291;28;20476;-76
2023/11/18 09:36:54;;;;;;;0.20;0.20;;;;;;;9.44;73.94;101947.03;5104639;27;20027;-80
2023/11/18 09:39:29;;;;;;;0.15;0.15;;;;;;;9.50;73.66;101950.56;5108457;28;20036;-79
2023/11/18 09:41:57;;;;;;;0.10;0.10;;;;;;;9.57;73.60;101942.63;5116933;28;20028;-77
2023/11/18 09:44:26;;;;;;;0.20;0.20;;;;;;;9.57;73.67;101947.94;5113424;28;20119;-80
2023/11/18 09:47:09;;;;;;;0.20;0.20;;;;;;;9.58;74.17;101950.56;5118776;27;20036;-80
2023/11/18 09:49:44;;;;;;;0.20;0.20;;;;;;;9.60;73.91;101946.19;5118364;28;20443;-80
2023/11/18 09:52:17;;;;;;;0.40;0.40;;;;;;;9.65;74.12;101940.91;5117742;28;20390;-80
2023/11/18 09:55:14;;;;;;;0.30;0.30;;;;;;;9.77;73.82;101946.22;5114376;27;20039;-79
2023/11/18 09:57:44;;;;;;;0.20;0.20;;;;;;;9.71;73.97;101933.84;5111608;28;20503;-78
2023/11/18 10:00:32;;;;;;;0.20;0.20;;;;;;;9.67;74.08;101928.53;5112548;27;20091;-78
2023/11/18 10:03:00;;;;;;;0.15;0.15;;;;;;;9.77;74.08;101929.44;5119059;28;20075;-80
2023/11/18 10:05:30;;;;;;;0.30;0.30;;;;;;;9.71;74.27;101919.75;5117186;28;20031;-80
2023/11/18 10:07:58;;;;;;;0.38;0.38;;;;;;;9.84;73.97;101917.97;5116797;28;20039;-80
2023/11/18 10:10:26;;;;;;;0.10;0.10;;;;;;;9.79;74.11;101928.56;5117338;27;20069;-77
2023/11/18 10:12:57;;;;;;;0.25;0.25;;;;;;;9.86;74.12;101946.22;5116723;27;20031;-79
2023/11/18 10:15:24;;;;;;;0.13;0.13;;;;;;;9.95;73.81;101937.38;5115331;28;20366;-79
2023/11/18 10:17:59;;;;;;;0.20;0.20;;;;;;;10.02;73.81;101925.91;5115518;28;20016;-78
2023/11/18 10:23:19;;;;;;;1.55;0.82;;;;;;;9.93;73.75;101920.63;5135233;27;20397;-80
2023/11/18 10:28:28;;;;;;;0.20;0.20;;;;;;;10.02;73.80;101899.44;5081630;28;20397;-81
2023/11/18 10:30:57;;;;;;;0.20;0.20;;;;;;;10.11;73.76;101887.09;5045157;28;20037;-79
2023/11/18 10:33:30;;;;;;;0.20;0.20;;;;;;;10.02;74.08;101877.38;5041988;28;20063;-80
2023/11/18 10:35:56;;;;;;;0.20;0.20;;;;;;;10.10;73.80;101865.00;5046134;28;20033;-78
2023/11/18 10:38:27;;;;;;;0.10;0.10;;;;;;;10.11;73.79;101868.56;5051788;28;20448;-80
2023/11/18 10:40:55;;;;;;;0.20;0.20;;;;;;;10.11;73.72;101869.41;5051559;28;20033;-83
2023/11/18 10:43:28;;;;;;;0.30;0.30;;;;;;;10.19;73.56;101874.69;5055386;28;20115;-80
2023/11/18 10:46:23;;;;;;;0.20;0.20;;;;;;;10.25;73.98;101879.97;5060200;28;20032;-78
2023/11/18 10:48:51;;;;;;;0.20;0.20;;;;;;;10.16;73.60;101882.66;5043981;28;20435;-83
2023/11/18 10:51:20;;;;;;;0.20;0.20;;;;;;;10.20;73.76;101872.06;5046160;28;20036;-83
2023/11/18 10:53:58;;;;;;;6.13;1.38;;;;;;;10.09;73.90;101871.19;5038705;28;20037;-80
2023/11/18 10:56:27;;;;;;;0.20;0.20;;;;;;;10.07;74.30;101843.84;5049840;28;20013;-81
2023/11/18 10:59:10;;;;;;;0.20;0.20;;;;;;;10.13;74.28;101833.22;5046516;28;20088;-80
2023/11/18 11:01:42;;;;;;;0.20;0.20;;;;;;;10.07;74.68;101811.16;5037677;28;20036;-82
2023/11/18 11:04:10;;;;;;;0.20;0.20;;;;;;;10.14;74.16;101797.03;5039942;28;20082;-79
2023/11/18 11:06:41;;;;;;;0.20;0.20;;;;;;;10.16;74.54;101768.78;5039037;28;20021;-81
2023/11/18 11:09:14;;;;;;;1.90;1.27;;;;;;;10.13;74.73;101750.25;5046654;28;20033;-81
2023/11/18 11:11:46;;;;;;;2.60;1.45;;;;;;;10.09;75.25;101724.66;5049833;28;20444;-83
2023/11/18 11:14:14;;;;;;;0.75;0.75;;;;;;;10.10;75.61;101711.41;5039010;28;20029;-80
2023/11/18 11:16:44;;;;;;;0.35;0.35;;;;;;;10.07;75.69;101713.19;5041523;28;20446;-80
2023/11/18 11:19:25;;;;;;;1.95;1.77;;;;;;;10.22;75.67;101709.59;5040201;28;20033;-81
2023/11/18 11:22:05;;;;;;;0.10;0.10;;;;;;;10.23;75.89;101711.38;5048824;28;20105;-79
2023/11/18 11:24:49;;;;;;;0.40;0.40;;;;;;;10.25;76.00;101714.91;5050788;28;20032;-80
2023/11/18 11:27:35;;;;;;;0.10;0.10;;;;;;;10.16;76.37;101714.03;5050485;28;20087;-82
2023/11/18 11:30:18;;;;;;;0.10;0.10;;;;;;;10.19;76.38;101707.84;5050256;28;20033;-80
2023/11/18 11:32:45;;;;;;;;;;;;;;;10.42;75.79;101704.22;5043698;28;20029;-81
2023/11/18 11:35:33;;;;;;;0.20;0.20;;;;;;;10.29;76.22;101677.81;5044271;28;19913;-81
2023/11/18 11:38:09;;;;;;;0.20;0.20;;;;;;;10.21;76.21;101650.47;5047958;28;20040;-80
2023/11/18 11:40:37;;;;;;;0.20;0.20;;;;;;;10.26;76.47;101632.78;5030749;28;20055;-81
2023/11/18 11:43:09;;;;;;;0.20;0.20;;;;;;;10.32;76.33;101608.03;5037431;28;20030;-80
2023/11/18 11:45:36;;;;;;;0.20;0.20;;;;;;;10.29;76.26;101605.38;5036620;28;20555;-80